createdAt,value
2023-01-27T00:00:08.643Z,28.06
2023-01-27T00:01:08.643Z,28.07
2023-01-27T00:02:08.653Z,28.09
2023-01-27T00:03:08.761Z,28.07
2023-01-27T00:04:08.761Z,28.07
2023-01-27T00:05:08.792Z,28.07
2023-01-27T00:06:08.730Z,28.06
2023-01-27T00:07:08.802Z,28.09
2023-01-27T00:08:08.802Z,28.09
2023-01-27T00:09:08.853Z,28.07
2023-01-27T00:10:08.938Z,28.10
2023-01-27T00:11:09.098Z,28.07
2023-01-27T00:12:09.193Z,28.07
2023-01-27T00:13:09.265Z,28.09
2023-01-27T00:14:09.284Z,28.07
2023-01-27T00:15:09.316Z,28.07
2023-01-27T00:16:09.318Z,28.09
2023-01-27T00:17:09.330Z,28.04
2023-01-27T00:18:09.296Z,28.06
2023-01-27T00:19:09.371Z,28.04
2023-01-27T00:20:09.439Z,28.04
2023-01-27T00:21:09.473Z,28.06
2023-01-27T00:22:09.395Z,28.03
2023-01-27T00:23:09.409Z,28.06
2023-01-27T00:24:09.549Z,28.06
2023-01-27T00:25:09.509Z,28.04
2023-01-27T00:26:09.534Z,28.07
2023-01-27T00:27:09.620Z,28.03
2023-01-27T00:28:09.567Z,28.06
2023-01-27T00:29:09.559Z,28.06
2023-01-27T00:30:09.607Z,28.04
2023-01-27T00:31:09.817Z,28.04
2023-01-27T00:32:09.786Z,28.06
2023-01-27T00:33:09.814Z,28.06
2023-01-27T00:34:10.067Z,28.04
2023-01-27T00:35:09.859Z,28.04
2023-01-27T00:36:09.890Z,28.06
2023-01-27T00:37:09.880Z,28.01
2023-01-27T00:38:09.911Z,28.03
2023-01-27T00:39:09.945Z,28.03
2023-01-27T00:40:10.034Z,28.01
2023-01-27T00:41:09.953Z,28.03
2023-01-27T00:42:09.985Z,28.04
2023-01-27T00:43:10.007Z,28.04
2023-01-27T00:44:10.048Z,28.03
2023-01-27T00:45:10.015Z,28.06
2023-01-27T00:46:10.100Z,28.03
2023-01-27T00:47:10.071Z,28.06
2023-01-27T00:54:10.251Z,28.07
2023-01-27T01:03:10.412Z,28.03
2023-01-27T01:04:10.426Z,28.03
2023-01-27T01:05:10.404Z,28.03
2023-01-27T01:06:10.446Z,28.04
2023-01-27T01:07:10.441Z,28.01
2023-01-27T01:08:10.562Z,28.03
2023-01-27T01:09:10.567Z,28.03
2023-01-27T01:10:10.837Z,28.03
2023-01-27T01:11:10.635Z,28.03
2023-01-27T01:12:10.760Z,28.04
2023-01-27T01:13:10.794Z,28.01
2023-01-27T01:14:10.786Z,28.03
2023-01-27T01:15:10.789Z,28.00
2023-01-27T01:16:10.917Z,28.03
2023-01-27T01:17:10.894Z,28.01
2023-01-27T01:18:10.928Z,28.01
2023-01-27T01:19:11.004Z,28.03
2023-01-27T01:20:11.264Z,28.01
2023-01-27T01:21:11.036Z,28.03
2023-01-27T01:22:10.998Z,28.00
2023-01-27T01:23:11.028Z,28.03
2023-01-27T01:24:11.234Z,28.01
2023-01-27T01:25:11.089Z,28.01
2023-01-27T01:26:11.078Z,28.03
2023-01-27T01:27:11.107Z,28.01
2023-01-27T01:28:11.167Z,28.00
2023-01-27T01:29:11.171Z,28.01
2023-01-27T01:30:11.287Z,28.01
2023-01-27T01:31:11.281Z,28.01
2023-01-27T01:32:11.286Z,28.03
2023-01-27T01:33:11.294Z,28.00
2023-01-27T01:34:11.299Z,28.01
2023-01-27T01:35:11.315Z,28.00
2023-01-27T01:36:11.315Z,28.00
2023-01-27T01:37:11.359Z,28.03
2023-01-27T01:38:11.381Z,28.00
2023-01-27T01:39:11.428Z,28.00
2023-01-27T01:40:11.740Z,27.99
2023-01-27T01:41:11.459Z,28.01
2023-01-27T01:42:11.401Z,28.01
2023-01-27T01:43:11.462Z,28.00
2023-01-27T01:44:11.467Z,28.01
2023-01-27T01:45:11.483Z,28.00
2023-01-27T01:46:11.664Z,28.00
2023-01-27T01:47:11.539Z,28.01
2023-01-27T01:48:11.563Z,28.00
2023-01-27T01:49:11.551Z,27.99
2023-01-27T01:50:11.961Z,28.00
2023-01-27T01:51:11.583Z,28.00
2023-01-27T01:52:11.627Z,28.01
2023-01-27T01:53:11.647Z,27.99
2023-01-27T01:54:11.653Z,27.99
2023-01-27T01:55:11.989Z,28.00
2023-01-27T01:56:11.713Z,28.00
2023-01-27T01:57:11.768Z,27.99
2023-01-27T01:58:11.781Z,27.97
2023-01-27T01:59:11.783Z,28.00
2023-01-27T02:00:12.133Z,27.99
2023-01-27T02:01:11.898Z,28.01
2023-01-27T02:02:11.846Z,27.97
2023-01-27T02:03:11.814Z,28.00
2023-01-27T02:04:11.867Z,27.97
2023-01-27T02:05:12.244Z,27.99
2023-01-27T02:06:11.936Z,27.99
2023-01-27T02:07:11.952Z,27.99
2023-01-27T02:08:11.955Z,27.99
2023-01-27T02:09:11.971Z,27.99
2023-01-27T02:10:12.247Z,27.99
2023-01-27T02:11:11.963Z,27.97
2023-01-27T02:12:12.652Z,28.00
2023-01-27T02:13:12.029Z,27.99
2023-01-27T02:14:12.039Z,27.99
2023-01-27T02:15:12.426Z,27.97
2023-01-27T02:16:12.076Z,27.96
2023-01-27T02:17:12.072Z,27.96
2023-01-27T02:18:12.080Z,28.00
2023-01-27T02:19:12.112Z,27.97
2023-01-27T02:20:12.142Z,27.99
2023-01-27T02:21:12.145Z,27.96
2023-01-27T02:22:12.145Z,28.00
2023-01-27T02:23:12.176Z,28.00
2023-01-27T02:24:12.317Z,27.99
2023-01-27T02:25:12.574Z,27.96
2023-01-27T02:26:12.227Z,27.96
2023-01-27T02:27:12.237Z,27.97
2023-01-27T02:28:12.257Z,27.97
2023-01-27T02:29:12.247Z,27.96
2023-01-27T02:30:12.293Z,27.99
2023-01-27T02:31:12.428Z,27.96
2023-01-27T02:32:12.336Z,27.95
2023-01-27T02:33:12.359Z,28.00
2023-01-27T02:34:12.363Z,27.97
2023-01-27T02:35:12.741Z,27.96
2023-01-27T02:36:12.406Z,27.97
2023-01-27T02:37:12.403Z,27.96
2023-01-27T02:38:13.199Z,27.99
2023-01-27T02:39:12.446Z,27.99
2023-01-27T02:40:12.459Z,27.95
2023-01-27T02:41:12.509Z,27.97
2023-01-27T02:42:12.509Z,27.97
2023-01-27T02:43:12.589Z,27.99
2023-01-27T02:44:12.605Z,27.99
2023-01-27T02:45:12.958Z,27.96
2023-01-27T02:46:12.610Z,27.96
2023-01-27T02:47:12.609Z,27.95
2023-01-27T02:48:12.646Z,27.96
2023-01-27T02:49:12.639Z,27.96
2023-01-27T02:50:12.673Z,27.96
2023-01-27T02:51:12.686Z,27.96
2023-01-27T02:52:12.711Z,27.96
2023-01-27T02:53:12.761Z,27.97
2023-01-27T02:54:12.768Z,27.93
2023-01-27T02:55:13.155Z,27.95
2023-01-27T02:56:12.772Z,27.95
2023-01-27T02:57:12.808Z,27.95
2023-01-27T02:58:12.843Z,27.93
2023-01-27T02:59:12.874Z,27.95
2023-01-27T03:00:13.233Z,27.95
2023-01-27T03:01:12.948Z,27.95
2023-01-27T03:02:12.986Z,27.97
2023-01-27T03:03:12.922Z,27.96
2023-01-27T03:04:12.972Z,27.96
2023-01-27T03:05:13.152Z,27.95
2023-01-27T03:06:12.984Z,27.93
2023-01-27T03:07:13.072Z,27.96
2023-01-27T03:08:13.076Z,27.96
2023-01-27T03:09:13.074Z,27.95
2023-01-27T03:10:13.087Z,27.93
2023-01-27T03:11:13.120Z,27.96
2023-01-27T03:12:13.129Z,27.95
2023-01-27T03:13:13.123Z,27.96
2023-01-27T03:14:13.210Z,27.97
2023-01-27T03:15:13.418Z,27.97
2023-01-27T03:16:14.595Z,27.99
2023-01-27T03:17:13.275Z,27.99
2023-01-27T03:18:13.240Z,27.99
2023-01-27T03:19:13.247Z,28.00
2023-01-27T03:20:13.266Z,28.01
2023-01-27T03:21:13.269Z,28.01
2023-01-27T03:22:13.365Z,28.03
2023-01-27T03:23:13.480Z,28.01
2023-01-27T03:24:13.615Z,28.04
2023-01-27T03:25:13.955Z,28.06
2023-01-27T03:26:13.558Z,28.09
2023-01-27T03:27:13.528Z,28.09
2023-01-27T03:28:13.554Z,28.10
2023-01-27T03:29:13.557Z,28.13
2023-01-27T03:30:13.546Z,28.11
2023-01-27T03:31:13.617Z,28.16
2023-01-27T03:32:13.680Z,28.16
2023-01-27T03:33:13.752Z,28.16
2023-01-27T03:34:13.749Z,28.16
2023-01-27T03:35:14.201Z,28.19
2023-01-27T03:36:13.874Z,28.23
2023-01-27T03:37:13.910Z,28.21
2023-01-27T03:38:13.991Z,28.24
2023-01-27T03:39:14.048Z,28.24
2023-01-27T03:40:14.109Z,28.26
2023-01-27T03:41:14.148Z,28.28
2023-01-27T03:42:14.250Z,28.30
2023-01-27T03:43:14.329Z,28.26
2023-01-27T03:44:14.340Z,28.30
2023-01-27T03:45:14.783Z,28.33
2023-01-27T03:46:14.500Z,28.33
2023-01-27T03:47:14.570Z,28.31
2023-01-27T03:48:14.580Z,28.36
2023-01-27T03:49:14.609Z,28.34
2023-01-27T03:50:14.687Z,28.37
2023-01-27T03:51:14.730Z,28.37
2023-01-27T03:52:14.796Z,28.41
2023-01-27T03:53:14.839Z,28.41
2023-01-27T03:54:14.915Z,28.41
2023-01-27T03:55:15.332Z,28.43
2023-01-27T04:47:16.530Z,28.71
2023-01-27T04:48:16.552Z,28.68
2023-01-27T04:49:16.622Z,28.70
2023-01-27T04:50:16.635Z,28.68
2023-01-27T04:51:16.648Z,28.70
2023-01-27T04:52:16.689Z,28.68
2023-01-27T04:53:16.700Z,28.70
2023-01-27T04:54:16.692Z,28.68
2023-01-27T04:55:16.781Z,28.68
2023-01-27T04:56:16.783Z,28.68
2023-01-27T04:57:16.816Z,28.67
2023-01-27T04:58:16.828Z,28.68
2023-01-27T04:59:16.836Z,28.67
2023-01-27T05:01:16.937Z,28.64
2023-01-27T05:02:16.979Z,28.65
2023-01-27T05:03:17.055Z,28.65
2023-01-27T05:04:17.034Z,28.64
2023-01-27T05:05:17.047Z,28.64
2023-01-27T05:06:17.702Z,28.61
2023-01-27T05:07:17.123Z,28.62
2023-01-27T05:08:17.171Z,28.62
2023-01-27T05:09:17.205Z,28.64
2023-01-27T05:10:17.244Z,28.65
2023-01-27T05:11:17.255Z,28.61
2023-01-27T05:12:17.363Z,28.61
2023-01-27T05:13:17.329Z,28.61
2023-01-27T05:14:17.403Z,28.62
2023-01-27T05:15:17.463Z,28.61
2023-01-27T05:16:17.578Z,28.60
2023-01-27T05:17:17.531Z,28.60
2023-01-27T05:18:17.587Z,28.61
2023-01-27T05:19:17.584Z,28.58
2023-01-27T05:20:17.660Z,28.58
2023-01-27T05:21:17.701Z,28.58
2023-01-27T05:22:17.733Z,28.57
2023-01-27T05:23:17.767Z,28.57
2023-01-27T05:24:17.852Z,28.60
2023-01-27T05:25:17.828Z,28.55
2023-01-27T05:26:17.902Z,28.58
2023-01-27T05:27:17.921Z,28.60
2023-01-27T05:29:17.988Z,28.57
2023-01-27T05:30:18.143Z,28.57
2023-01-27T05:31:18.245Z,28.54
2023-01-27T05:32:18.160Z,28.58
2023-01-27T05:33:18.174Z,28.55
2023-01-27T05:34:18.228Z,28.55
2023-01-27T05:35:18.294Z,28.54
2023-01-27T05:36:18.348Z,28.54
2023-01-27T05:38:18.399Z,28.54
2023-01-27T05:39:18.471Z,28.57
2023-01-27T05:40:18.537Z,28.54
2023-01-27T05:41:18.558Z,28.55
2023-01-27T05:42:18.620Z,28.54
2023-01-27T05:43:18.648Z,28.54
2023-01-27T05:44:18.708Z,28.54
2023-01-27T05:45:18.788Z,28.54
2023-01-27T05:46:18.857Z,28.57
2023-01-27T05:47:18.829Z,28.54
2023-01-27T05:48:18.886Z,28.57
2023-01-27T05:49:18.924Z,28.54
2023-01-27T05:50:19.002Z,28.54
2023-01-27T05:51:19.019Z,28.57
2023-01-27T05:52:19.069Z,28.55
2023-01-27T05:53:19.129Z,28.54
2023-01-27T05:54:19.149Z,28.51
2023-01-27T05:55:19.240Z,28.54
2023-01-27T05:56:19.272Z,28.55
2023-01-27T05:57:19.318Z,28.54
2023-01-27T05:58:19.381Z,28.55
2023-01-27T05:59:19.418Z,28.55
2023-01-27T06:00:19.468Z,28.51
2023-01-27T06:02:21.864Z,28.54
2023-01-27T06:03:19.463Z,28.55
2023-01-27T06:04:19.481Z,28.54
2023-01-27T06:05:19.443Z,28.55
2023-01-27T06:06:19.467Z,28.55
2023-01-27T06:07:19.446Z,28.54
2023-01-27T06:08:19.462Z,28.54
2023-01-27T06:09:19.462Z,28.54
2023-01-27T06:10:19.473Z,28.55
2023-01-27T06:11:19.426Z,28.52
2023-01-27T06:12:19.415Z,28.55
2023-01-27T06:13:19.432Z,28.54
2023-01-27T06:14:19.407Z,28.55
2023-01-27T06:15:19.410Z,28.52
2023-01-27T06:16:19.421Z,28.55
2023-01-27T06:17:19.390Z,28.54
2023-01-27T06:18:19.368Z,28.52
2023-01-27T06:19:19.370Z,28.52
2023-01-27T06:20:19.453Z,28.54
2023-01-27T06:21:19.423Z,28.51
2023-01-27T06:22:19.372Z,28.54
2023-01-27T06:23:19.387Z,28.52
2023-01-27T06:24:19.406Z,28.52
2023-01-27T06:25:19.353Z,28.52
2023-01-27T06:26:19.378Z,28.54
2023-01-27T06:27:19.303Z,28.54
2023-01-27T06:28:28.703Z,28.55
2023-01-27T06:29:20.320Z,28.52
2023-01-27T06:30:19.385Z,28.52
2023-01-27T06:31:19.505Z,28.54
2023-01-27T06:32:19.290Z,28.54
2023-01-27T06:33:19.331Z,28.52
2023-01-27T06:34:19.355Z,28.52
2023-01-27T06:35:19.265Z,28.52
2023-01-27T06:36:19.234Z,28.54
2023-01-27T06:37:19.260Z,28.55
2023-01-27T06:38:19.396Z,28.52
2023-01-27T06:39:19.308Z,28.52
2023-01-27T06:40:19.379Z,28.55
2023-01-27T06:41:19.401Z,28.52
2023-01-27T06:42:19.427Z,28.50
2023-01-27T06:43:19.508Z,28.52
2023-01-27T06:44:19.541Z,28.54
2023-01-27T06:45:19.589Z,28.54
2023-01-27T06:46:26.878Z,28.51
2023-01-27T06:47:20.333Z,28.52
2023-01-27T06:48:19.632Z,28.52
2023-01-27T06:49:19.638Z,28.52
2023-01-27T06:50:19.714Z,28.51
2023-01-27T06:51:19.618Z,28.51
2023-01-27T06:52:19.644Z,28.54
2023-01-27T06:53:19.636Z,28.51
2023-01-27T06:54:19.627Z,28.54
2023-01-27T06:55:19.567Z,28.51
2023-01-27T06:56:19.557Z,28.52
2023-01-27T06:57:19.581Z,28.51
2023-01-27T06:58:19.576Z,28.52
2023-01-27T06:59:19.558Z,28.54
2023-01-27T07:00:19.559Z,28.52
2023-01-27T07:01:19.909Z,28.52
2023-01-27T07:02:19.603Z,28.52
2023-01-27T07:03:20.218Z,28.51
2023-01-27T07:04:19.581Z,28.51
2023-01-27T07:05:19.508Z,28.54
2023-01-27T07:06:19.822Z,28.50
2023-01-27T07:07:19.492Z,28.51
2023-01-27T07:08:19.528Z,28.51
2023-01-27T07:09:19.626Z,28.51
2023-01-27T07:10:19.491Z,28.55
2023-01-27T07:11:19.580Z,28.51
2023-01-27T07:12:19.628Z,28.52
2023-01-27T07:13:19.759Z,28.52
2023-01-27T07:14:19.687Z,28.54
2023-01-27T07:15:19.760Z,28.51
2023-01-27T07:16:20.419Z,28.52
2023-01-27T07:17:19.866Z,28.54
2023-01-27T07:18:19.993Z,28.55
2023-01-27T07:19:20.006Z,28.54
2023-01-27T07:20:20.046Z,28.52
2023-01-27T07:21:20.141Z,28.52
2023-01-27T07:22:20.222Z,28.55
2023-01-27T07:23:20.154Z,28.54
2023-01-27T07:24:20.194Z,28.54
2023-01-27T07:25:20.223Z,28.54
2023-01-27T07:26:25.099Z,28.54
2023-01-27T07:27:21.275Z,28.55
2023-01-27T07:28:20.272Z,28.52
2023-01-27T07:29:20.271Z,28.54
2023-01-27T07:30:20.288Z,28.54
2023-01-27T07:31:20.453Z,28.55
2023-01-27T07:32:20.227Z,28.54
2023-01-27T07:33:20.239Z,28.54
2023-01-27T07:34:20.260Z,28.55
2023-01-27T07:35:20.289Z,28.58
2023-01-27T07:36:20.350Z,28.54
2023-01-27T07:37:20.307Z,28.55
2023-01-27T07:38:20.315Z,28.57
2023-01-27T07:39:20.338Z,28.55
2023-01-27T07:40:20.394Z,28.55
2023-01-27T07:41:20.437Z,28.55
2023-01-27T07:42:20.526Z,28.54
2023-01-27T07:43:20.508Z,28.57
2023-01-27T07:44:20.610Z,28.55
2023-01-27T07:45:20.641Z,28.55
2023-01-27T07:46:20.723Z,28.54
2023-01-27T07:47:20.912Z,28.54
2023-01-27T07:48:20.743Z,28.55
2023-01-27T07:49:20.755Z,28.57
2023-01-27T07:50:20.827Z,28.57
2023-01-27T07:51:20.871Z,28.54
2023-01-27T07:52:20.897Z,28.55
2023-01-27T07:53:21.861Z,28.54
2023-01-27T07:54:20.969Z,28.54
2023-01-27T07:55:20.992Z,28.55
2023-01-27T07:56:21.055Z,28.54
2023-01-27T07:57:21.383Z,28.57
2023-01-27T07:58:21.128Z,28.57
2023-01-27T07:59:21.200Z,28.54
2023-01-27T08:00:21.192Z,28.55
2023-01-27T08:01:21.357Z,28.55
2023-01-27T08:02:21.307Z,28.58
2023-01-27T08:03:21.421Z,28.54
2023-01-27T08:04:21.369Z,28.58
2023-01-27T08:05:21.421Z,28.54
2023-01-27T08:06:21.491Z,28.58
2023-01-27T08:07:21.517Z,28.57
2023-01-27T08:08:21.553Z,28.55
2023-01-27T08:09:21.622Z,28.58
2023-01-27T08:10:21.626Z,28.55
2023-01-27T08:11:21.666Z,28.54
2023-01-27T08:12:21.745Z,28.58
2023-01-27T08:13:21.745Z,28.55
2023-01-27T08:14:21.796Z,28.55
2023-01-27T08:15:21.846Z,28.55
2023-01-27T08:16:21.867Z,28.57
2023-01-27T08:17:21.907Z,28.58
2023-01-27T08:18:21.981Z,28.58
2023-01-27T08:19:22.846Z,28.57
2023-01-27T08:20:22.039Z,28.58
2023-01-27T08:21:22.074Z,28.57
2023-01-27T08:22:22.165Z,28.57
2023-01-27T08:23:22.155Z,28.57
2023-01-27T08:24:22.241Z,28.57
2023-01-27T08:25:22.274Z,28.57
2023-01-27T08:26:22.319Z,28.58
2023-01-27T08:27:22.401Z,28.58
2023-01-27T08:28:22.474Z,28.55
2023-01-27T08:29:22.431Z,28.58
2023-01-27T08:30:22.482Z,28.57
2023-01-27T08:31:22.594Z,28.57
2023-01-27T08:32:22.573Z,28.57
2023-01-27T08:33:22.602Z,28.57
2023-01-27T08:34:22.658Z,28.58
2023-01-27T08:35:22.654Z,28.55
2023-01-27T09:01:23.906Z,27.92
2023-01-27T09:02:23.867Z,27.89
2023-01-27T09:03:23.910Z,27.85
2023-01-27T09:04:23.998Z,27.86
2023-01-27T09:05:23.994Z,27.83
2023-01-27T09:06:24.031Z,27.83
2023-01-27T09:07:24.100Z,27.79
2023-01-27T09:08:24.132Z,27.78
2023-01-27T09:09:24.212Z,27.76
2023-01-27T09:10:24.588Z,27.79
2023-01-27T09:11:24.449Z,27.78
2023-01-27T09:12:24.336Z,27.78
2023-01-27T09:13:24.447Z,27.72
2023-01-27T09:14:24.463Z,27.75
2023-01-27T09:15:24.561Z,27.73
2023-01-27T09:16:24.577Z,27.72
2023-01-27T09:17:24.628Z,27.69
2023-01-27T09:18:24.621Z,27.68
2023-01-27T09:19:24.646Z,27.68
2023-01-27T09:20:24.683Z,27.65
2023-01-27T09:21:24.957Z,27.63
2023-01-27T09:22:24.645Z,27.59
2023-01-27T09:23:24.670Z,27.60
2023-01-27T09:24:24.657Z,27.59
2023-01-27T09:25:24.638Z,27.58
2023-01-27T09:26:24.646Z,27.55
2023-01-27T09:27:37.288Z,27.52
2023-01-27T09:28:25.630Z,27.52
2023-01-27T09:29:24.670Z,27.49
2023-01-27T09:30:24.604Z,27.48
2023-01-27T09:31:24.792Z,27.46
2023-01-27T09:32:24.634Z,27.41
2023-01-27T09:33:24.579Z,27.39
2023-01-27T09:34:24.597Z,27.37
2023-01-27T09:35:24.599Z,27.35
2023-01-27T09:36:24.553Z,27.32
2023-01-27T09:37:26.844Z,27.31
2023-01-27T09:38:24.588Z,27.31
2023-01-27T09:39:24.621Z,27.29
2023-01-27T09:40:24.590Z,27.29
2023-01-27T09:41:24.552Z,27.29
2023-01-27T09:42:24.544Z,27.29
2023-01-27T09:43:24.557Z,27.29
2023-01-27T09:44:24.559Z,27.28
2023-01-27T09:45:24.508Z,27.29
2023-01-27T09:46:24.579Z,27.28
2023-01-27T09:47:24.520Z,27.28
2023-01-27T09:48:24.522Z,27.24
2023-01-27T09:49:24.482Z,27.27
2023-01-27T09:50:24.501Z,27.27
2023-01-27T09:51:24.450Z,27.25
2023-01-27T09:52:25.407Z,27.24
2023-01-27T09:53:24.507Z,27.25
2023-01-27T09:54:24.472Z,27.25
2023-01-27T09:55:24.477Z,27.22
2023-01-27T09:56:24.456Z,27.24
2023-01-27T10:01:25.335Z,27.27
2023-01-27T10:04:25.431Z,27.34
2023-01-27T10:47:25.473Z,27.50
2023-01-27T10:48:25.332Z,27.56
2023-01-27T10:49:25.358Z,27.58
2023-01-27T10:50:25.404Z,27.59
2023-01-27T10:51:25.424Z,27.65
2023-01-27T10:52:25.448Z,27.68
2023-01-27T10:53:25.521Z,27.70
2023-01-27T10:54:25.546Z,27.73
2023-01-27T10:55:25.570Z,27.73
2023-01-27T10:56:25.659Z,27.73
2023-01-27T10:57:25.669Z,27.78
2023-01-27T10:58:25.608Z,27.79
2023-01-27T10:59:25.623Z,27.83
2023-01-27T11:00:54.800Z,27.85
2023-01-27T11:01:27.012Z,27.82
2023-01-27T11:02:25.628Z,27.85
2023-01-27T11:03:25.657Z,27.85
2023-01-27T11:04:25.645Z,27.86
2023-01-27T11:05:25.626Z,27.89
2023-01-27T11:06:25.621Z,27.92
2023-01-27T11:07:25.599Z,27.90
2023-01-27T11:08:25.628Z,27.92
2023-01-27T11:09:25.582Z,27.95
2023-01-27T11:10:25.596Z,27.92
2023-01-27T11:11:25.586Z,27.95
2023-01-27T11:12:25.573Z,27.96
2023-01-27T11:13:25.575Z,27.97
2023-01-27T11:14:25.596Z,27.96
2023-01-27T11:15:25.564Z,27.99
2023-01-27T11:16:25.626Z,28.01
2023-01-27T11:17:25.609Z,27.97
2023-01-27T11:18:25.628Z,28.00
2023-01-27T11:19:25.626Z,27.97
2023-01-27T11:20:25.589Z,28.01
2023-01-27T11:21:25.594Z,28.01
2023-01-27T11:22:25.746Z,28.01
2023-01-27T16:57:15.343Z,28.04
2023-01-27T16:58:15.349Z,28.03
2023-01-27T16:59:15.381Z,28.03
2023-01-27T17:00:15.530Z,28.04
2023-01-27T17:01:15.479Z,28.01
2023-01-27T17:02:15.466Z,28.03
2023-01-27T17:03:15.547Z,28.04
2023-01-27T17:04:20.035Z,28.04
2023-01-27T17:05:15.891Z,28.03
2023-01-27T17:06:15.504Z,28.03
2023-01-27T17:07:15.625Z,28.01
2023-01-27T17:08:15.515Z,28.04
2023-01-27T17:09:15.528Z,28.01
2023-01-27T17:10:29.123Z,28.01
2023-01-27T17:11:16.475Z,28.00
2023-01-27T17:12:15.496Z,28.01
2023-01-27T17:13:15.459Z,28.00
2023-01-27T17:14:30.086Z,28.03
2023-01-27T17:15:16.457Z,28.00
2023-01-27T17:16:15.416Z,28.00
2023-01-27T17:17:15.472Z,27.99
2023-01-27T17:18:15.411Z,27.99
2023-01-27T17:19:15.425Z,27.97
2023-01-27T17:20:15.412Z,27.99
2023-01-27T17:21:15.415Z,27.97
2023-01-27T17:22:15.407Z,27.97
2023-01-27T17:23:15.432Z,27.97
2023-01-27T17:24:15.585Z,28.00
2023-01-27T17:25:15.833Z,27.99
2023-01-27T17:26:15.378Z,27.99
2023-01-27T17:27:15.403Z,27.99
2023-01-27T17:28:15.336Z,27.97
2023-01-27T17:29:15.353Z,27.97
2023-01-27T17:30:15.368Z,27.99
2023-01-27T17:31:15.432Z,27.97
2023-01-27T17:32:15.371Z,27.97
2023-01-27T17:34:15.353Z,28.00
2023-01-27T17:35:15.650Z,27.99
2023-01-27T17:36:15.334Z,27.99
2023-01-27T17:37:15.369Z,27.97
2023-01-27T17:38:15.443Z,27.95
2023-01-27T17:39:15.477Z,27.96
2023-01-27T17:40:15.471Z,27.95
2023-01-27T17:41:15.497Z,27.95
2023-01-27T17:42:15.540Z,27.97
2023-01-27T17:43:15.576Z,27.97
2023-01-27T17:44:15.605Z,27.97
2023-01-27T17:45:15.673Z,27.96
2023-01-27T17:46:15.715Z,27.96
2023-01-27T17:47:15.731Z,27.95
2023-01-27T17:48:15.727Z,27.96
2023-01-27T17:49:16.091Z,27.95
2023-01-27T17:50:15.800Z,27.93
2023-01-27T17:51:15.867Z,27.96
2023-01-27T17:52:15.853Z,27.95
2023-01-27T17:53:15.933Z,27.95
2023-01-27T17:54:15.929Z,27.90
2023-01-27T17:55:16.178Z,27.95
2023-01-27T17:56:15.972Z,27.95
2023-01-27T17:57:15.997Z,27.95
2023-01-27T17:58:16.007Z,27.93
2023-01-27T17:59:16.081Z,27.95
2023-01-27T18:00:16.112Z,27.92
2023-01-27T18:01:16.137Z,27.95
2023-01-27T18:02:16.231Z,27.92
2023-01-27T18:03:16.189Z,27.93
2023-01-27T18:04:16.222Z,27.95
2023-01-27T18:05:16.464Z,27.93
2023-01-27T18:06:16.290Z,27.92
2023-01-27T18:07:16.346Z,27.90
2023-01-27T18:08:16.364Z,27.95
2023-01-27T18:09:16.442Z,27.92
2023-01-27T18:10:16.459Z,27.95
2023-01-27T18:11:16.464Z,27.92
2023-01-27T18:12:16.495Z,27.93
2023-01-27T18:13:16.564Z,27.93
2023-01-27T18:14:16.647Z,27.90
2023-01-27T18:15:16.622Z,27.92
2023-01-27T18:16:16.685Z,27.92
2023-01-27T18:17:16.660Z,27.90
2023-01-27T18:18:16.714Z,27.90
2023-01-27T18:19:16.748Z,27.92
2023-01-27T18:20:16.833Z,27.92
2023-01-27T18:21:16.834Z,27.90
2023-01-27T18:22:16.875Z,27.89
2023-01-27T18:23:16.906Z,27.92
2023-01-27T18:24:16.953Z,27.90
2023-01-27T18:25:17.009Z,27.89
2023-01-27T18:26:17.034Z,27.89
2023-01-27T18:27:17.037Z,27.90
2023-01-27T18:28:17.096Z,27.90
2023-01-27T18:29:17.137Z,27.89
2023-01-27T18:30:17.198Z,27.88
2023-01-27T18:31:17.327Z,27.90
2023-01-27T18:32:17.257Z,27.88
2023-01-27T18:33:17.287Z,27.89
2023-01-27T18:34:17.344Z,27.89
2023-01-27T18:35:17.374Z,27.89
2023-01-27T18:36:17.380Z,27.89
2023-01-27T18:37:17.439Z,27.89
2023-01-27T18:38:17.451Z,27.90
2023-01-27T18:39:17.527Z,27.89
2023-01-27T18:40:17.531Z,27.88
2023-01-27T18:41:17.573Z,27.88
2023-01-27T18:42:17.631Z,27.89
2023-01-27T18:43:17.673Z,27.90
2023-01-27T18:44:17.710Z,27.89
2023-01-27T18:45:17.746Z,27.86
2023-01-27T18:46:17.818Z,27.85
2023-01-27T18:47:17.824Z,27.90
2023-01-27T18:48:17.868Z,27.86
2023-01-27T18:49:17.996Z,27.89
2023-01-27T18:50:17.910Z,27.86
2023-01-27T18:51:17.965Z,27.88
2023-01-27T18:52:17.984Z,27.88
2023-01-27T18:53:18.073Z,27.89
2023-01-27T18:54:18.079Z,27.88
2023-01-27T18:55:18.405Z,27.88
2023-01-27T18:56:18.207Z,27.89
2023-01-27T18:57:18.241Z,27.88
2023-01-27T18:58:18.258Z,27.88
2023-01-27T18:59:18.326Z,27.86
2023-01-27T19:00:18.361Z,27.86
2023-01-27T19:01:18.381Z,27.88
2023-01-27T19:02:18.455Z,27.86
2023-01-27T19:03:18.505Z,27.88
2023-01-27T19:04:18.486Z,27.88
2023-01-27T19:05:18.553Z,27.85
2023-01-27T19:06:18.571Z,27.85
2023-01-27T19:07:18.633Z,27.83
2023-01-27T19:08:18.645Z,27.82
2023-01-27T19:09:18.717Z,27.85
2023-01-27T19:10:18.756Z,27.86
2023-01-27T21:31:25.408Z,27.76
2023-01-27T21:32:25.403Z,27.76
2023-01-27T21:33:25.460Z,27.76
2023-01-27T21:34:25.521Z,27.76
2023-01-27T21:35:25.601Z,27.73
2023-01-27T21:36:25.561Z,27.75
2023-01-27T21:37:25.643Z,27.75
2023-01-27T21:38:25.696Z,27.73
2023-01-27T21:39:25.754Z,27.78
2023-01-27T21:40:25.801Z,27.75
2023-01-27T21:41:25.884Z,27.76
2023-01-27T21:42:25.904Z,27.75
2023-01-27T21:43:25.921Z,27.73
2023-01-27T21:44:26.018Z,27.76
2023-01-27T21:45:26.029Z,27.75
2023-01-27T21:46:26.121Z,27.76
2023-01-27T21:47:26.153Z,27.76
2023-01-27T21:48:26.232Z,27.75
2023-01-27T21:49:26.295Z,27.75
2023-01-27T21:50:26.312Z,27.75
2023-01-27T21:51:26.352Z,27.76
2023-01-27T21:52:26.412Z,27.75
2023-01-27T21:53:26.473Z,27.73
2023-01-27T21:54:26.543Z,27.73
2023-01-27T21:55:26.609Z,27.75
2023-01-27T21:56:26.627Z,27.73
2023-01-27T21:57:26.704Z,27.75
2023-01-27T21:58:26.739Z,27.73
2023-01-27T21:59:26.813Z,27.73
2023-01-27T22:00:26.875Z,27.72
2023-01-27T22:01:26.939Z,27.72
2023-01-27T22:02:26.974Z,27.75
2023-01-27T22:03:27.062Z,27.73
2023-01-27T22:04:27.184Z,27.73
2023-01-27T22:05:27.126Z,27.75
2023-01-27T22:06:27.230Z,27.73
2023-01-27T22:07:27.291Z,27.73
2023-01-27T22:08:27.298Z,27.72
2023-01-27T22:09:27.661Z,27.75
2023-01-27T22:10:27.426Z,27.75
2023-01-27T22:11:27.472Z,27.73
2023-01-27T22:12:27.529Z,27.73
2023-01-27T22:13:27.614Z,27.73
2023-01-27T22:14:27.658Z,27.72
2023-01-27T22:15:27.707Z,27.72
2023-01-27T22:16:27.816Z,27.73
2023-01-27T22:17:27.901Z,27.73
2023-01-27T22:18:27.866Z,27.73
2023-01-27T22:19:27.934Z,27.73
2023-01-27T22:20:28.035Z,27.73
2023-01-27T22:21:28.049Z,27.72
2023-01-27T22:22:28.111Z,27.73
2023-01-27T22:23:28.221Z,27.75
2023-01-27T22:24:28.271Z,27.70
2023-01-27T22:25:28.280Z,27.72
2023-01-27T22:26:28.353Z,27.72
2023-01-27T22:27:28.395Z,27.72
2023-01-27T22:28:28.445Z,27.72
2023-01-27T22:29:28.518Z,27.72
2023-01-27T22:30:28.566Z,27.69
2023-01-27T22:31:28.632Z,27.70
2023-01-27T22:32:28.722Z,27.72
2023-01-27T22:33:28.720Z,27.72
2023-01-27T22:34:28.750Z,27.70
2023-01-27T22:35:28.824Z,27.70
2023-01-27T22:36:28.865Z,27.72
2023-01-27T22:37:28.920Z,27.75
2023-01-27T22:38:28.982Z,27.72
2023-01-27T22:39:29.045Z,27.70
2023-01-27T22:40:29.096Z,27.72
2023-01-27T22:41:29.150Z,27.70
2023-01-27T22:42:29.206Z,27.72
2023-01-27T22:43:29.276Z,27.69
2023-01-27T22:44:29.389Z,27.70
2023-01-27T22:45:29.482Z,27.69
2023-01-27T22:47:29.509Z,27.69
2023-01-27T22:48:29.534Z,27.69
2023-01-27T22:49:29.628Z,27.68
2023-01-27T22:50:29.688Z,27.68
2023-01-27T22:51:29.745Z,27.69
2023-01-27T22:52:29.756Z,27.70
2023-01-27T22:53:29.845Z,27.70
2023-01-27T22:54:29.887Z,27.70
2023-01-27T22:55:29.948Z,27.70
2023-01-27T22:56:30.026Z,27.70
2023-01-27T22:57:30.111Z,27.72
2023-01-27T22:58:30.142Z,27.70
2023-01-27T23:00:30.215Z,27.68
2023-01-27T23:01:30.319Z,27.70
2023-01-27T23:02:30.370Z,27.68
2023-01-27T23:03:30.398Z,27.72
2023-01-27T23:04:30.447Z,27.69
2023-01-27T23:05:30.509Z,27.69
2023-01-27T23:06:30.580Z,27.69
2023-01-27T23:07:30.600Z,27.68
